sensor_id;sensor_type;location;lat;lon;timestamp;pressure;altitude;pressure_sealevel;temperature;humidity
80103;BME280;69865;47.648;19.030;2023-05-20T00:00:02;100986.44;;;12.51;95.59
80103;BME280;69865;47.648;19.030;2023-05-20T00:00:33;100988.69;;;12.56;95.48
80103;BME280;69865;47.648;19.030;2023-05-20T00:01:04;100990.50;;;12.55;95.48
80103;BME280;69865;47.648;19.030;2023-05-20T00:01:35;100995.19;;;12.52;95.38
80103;BME280;69865;47.648;19.030;2023-05-20T00:02:05;100995.19;;;12.52;95.54
80103;BME280;69865;47.648;19.030;2023-05-20T00:02:36;100990.88;;;12.51;95.60
80103;BME280;69865;47.648;19.030;2023-05-20T00:03:07;100986.69;;;12.48;95.42
80103;BME280;69865;47.648;19.030;2023-05-20T00:03:38;100991.13;;;12.48;95.37
80103;BME280;69865;47.648;19.030;2023-05-20T00:04:08;100982.09;;;12.50;95.35
80103;BME280;69865;47.648;19.030;2023-05-20T00:04:39;100989.44;;;12.47;95.07
80103;BME280;69865;47.648;19.030;2023-05-20T00:05:10;100990.19;;;12.49;95.40
80103;BME280;69865;47.648;19.030;2023-05-20T00:05:41;100985.72;;;12.49;95.05
80103;BME280;69865;47.648;19.030;2023-05-20T00:06:11;100990.44;;;12.46;95.69
80103;BME280;69865;47.648;19.030;2023-05-20T00:06:42;100990.56;;;12.44;95.49
80103;BME280;69865;47.648;19.030;2023-05-20T00:07:13;100995.72;;;12.46;95.50
80103;BME280;69865;47.648;19.030;2023-05-20T00:07:46;100988.03;;;12.43;95.48
80103;BME280;69865;47.648;19.030;2023-05-20T00:08:17;100989.97;;;12.41;96.16
80103;BME280;69865;47.648;19.030;2023-05-20T00:08:48;100987.47;;;12.39;96.55
80103;BME280;69865;47.648;19.030;2023-05-20T00:09:19;100980.38;;;12.40;96.72
80103;BME280;69865;47.648;19.030;2023-05-20T00:09:50;100980.84;;;12.45;97.13
80103;BME280;69865;47.648;19.030;2023-05-20T00:10:21;100985.97;;;12.46;96.77
80103;BME280;69865;47.648;19.030;2023-05-20T00:10:52;100985.38;;;12.43;97.21
80103;BME280;69865;47.648;19.030;2023-05-20T00:11:22;100981.09;;;12.42;97.23
80103;BME280;69865;47.648;19.030;2023-05-20T00:11:53;100982.06;;;12.41;97.72
80103;BME280;69865;47.648;19.030;2023-05-20T00:12:24;100972.91;;;12.45;97.61
80103;BME280;69865;47.648;19.030;2023-05-20T00:12:56;100984.16;;;12.47;97.26
80103;BME280;69865;47.648;19.030;2023-05-20T00:13:27;100980.44;;;12.49;97.62
80103;BME280;69865;47.648;19.030;2023-05-20T00:13:57;100981.16;;;12.51;97.27
80103;BME280;69865;47.648;19.030;2023-05-20T00:14:28;100976.69;;;12.52;97.58
80103;BME280;69865;47.648;19.030;2023-05-20T00:14:59;100982.72;;;12.54;96.79
80103;BME280;69865;47.648;19.030;2023-05-20T00:15:31;100976.44;;;12.55;97.16
80103;BME280;69865;47.648;19.030;2023-05-20T00:16:01;100976.19;;;12.58;98.02
80103;BME280;69865;47.648;19.030;2023-05-20T00:16:32;100971.59;;;12.60;98.24
80103;BME280;69865;47.648;19.030;2023-05-20T00:17:03;100967.28;;;12.59;97.93
80103;BME280;69865;47.648;19.030;2023-05-20T00:17:34;100973.28;;;12.61;97.62
80103;BME280;69865;47.648;19.030;2023-05-20T00:18:06;100965.38;;;12.61;98.01
80103;BME280;69865;47.648;19.030;2023-05-20T00:18:36;100967.84;;;12.62;97.85
80103;BME280;69865;47.648;19.030;2023-05-20T00:19:07;100966.91;;;12.63;97.81
80103;BME280;69865;47.648;19.030;2023-05-20T00:19:38;100963.97;;;12.66;97.49
80103;BME280;69865;47.648;19.030;2023-05-20T00:20:09;100962.19;;;12.67;97.41
80103;BME280;69865;47.648;19.030;2023-05-20T00:20:40;100965.66;;;12.67;97.64
80103;BME280;69865;47.648;19.030;2023-05-20T00:21:11;100955.53;;;12.73;97.31
80103;BME280;69865;47.648;19.030;2023-05-20T00:21:41;100954.59;;;12.74;97.24
80103;BME280;69865;47.648;19.030;2023-05-20T00:22:12;100959.72;;;12.75;97.28
80103;BME280;69865;47.648;19.030;2023-05-20T00:22:43;100958.03;;;12.74;96.65
80103;BME280;69865;47.648;19.030;2023-05-20T00:23:14;100957.34;;;12.72;96.96
80103;BME280;69865;47.648;19.030;2023-05-20T00:23:47;100953.03;;;12.71;97.29
80103;BME280;69865;47.648;19.030;2023-05-20T00:24:18;100961.91;;;12.70;97.20
80103;BME280;69865;47.648;19.030;2023-05-20T00:24:49;100954.59;;;12.74;96.63
80103;BME280;69865;47.648;19.030;2023-05-20T00:25:20;100948.31;;;12.75;97.07
80103;BME280;69865;47.648;19.030;2023-05-20T00:25:50;100953.47;;;12.76;96.47
80103;BME280;69865;47.648;19.030;2023-05-20T00:26:21;100954.31;;;12.77;96.72
80103;BME280;69865;47.648;19.030;2023-05-20T00:26:52;100954.31;;;12.77;96.57
80103;BME280;69865;47.648;19.030;2023-05-20T00:27:23;100948.31;;;12.75;96.93
80103;BME280;69865;47.648;19.030;2023-05-20T00:27:53;100953.34;;;12.78;96.81
80103;BME280;69865;47.648;19.030;2023-05-20T00:28:26;100951.78;;;12.75;96.80
80103;BME280;69865;47.648;19.030;2023-05-20T00:28:57;100952.63;;;12.76;96.91
80103;BME280;69865;47.648;19.030;2023-05-20T00:29:27;100954.16;;;12.78;97.07
80103;BME280;69865;47.648;19.030;2023-05-20T00:29:59;100946.97;;;12.80;96.38
80103;BME280;69865;47.648;19.030;2023-05-20T00:30:30;100951.13;;;12.83;96.75
80103;BME280;69865;47.648;19.030;2023-05-20T00:31:01;100947.78;;;12.81;96.15
80103;BME280;69865;47.648;19.030;2023-05-20T00:31:31;100947.78;;;12.81;96.56
80103;BME280;69865;47.648;19.030;2023-05-20T00:32:02;100950.81;;;12.76;96.59
80103;BME280;69865;47.648;19.030;2023-05-20T00:32:36;100943.03;;;12.75;96.52
80103;BME280;69865;47.648;19.030;2023-05-20T00:33:07;100947.22;;;12.77;96.46
80103;BME280;69865;47.648;19.030;2023-05-20T00:33:38;100948.88;;;12.78;96.40
80103;BME280;69865;47.648;19.030;2023-05-20T00:34:09;100952.50;;;12.77;96.71
80103;BME280;69865;47.648;19.030;2023-05-20T00:34:41;100944.81;;;12.74;96.23
80103;BME280;69865;47.648;19.030;2023-05-20T00:35:12;100944.97;;;12.73;96.06
80103;BME280;69865;47.648;19.030;2023-05-20T00:35:43;100945.09;;;12.71;96.91
80103;BME280;69865;47.648;19.030;2023-05-20T00:36:14;100950.53;;;12.69;96.70
80103;BME280;69865;47.648;19.030;2023-05-20T00:36:44;100946.91;;;12.70;96.68
80103;BME280;69865;47.648;19.030;2023-05-20T00:37:15;100943.41;;;12.70;96.61
80103;BME280;69865;47.648;19.030;2023-05-20T00:37:46;100947.75;;;12.71;96.25
80103;BME280;69865;47.648;19.030;2023-05-20T00:38:17;100948.84;;;12.68;96.40
80103;BME280;69865;47.648;19.030;2023-05-20T00:38:47;100947.88;;;12.69;96.57
80103;BME280;69865;47.648;19.030;2023-05-20T00:39:18;100947.63;;;12.73;96.69
80103;BME280;69865;47.648;19.030;2023-05-20T00:39:49;100946.91;;;12.70;96.52
80103;BME280;69865;47.648;19.030;2023-05-20T00:40:20;100948.56;;;12.71;96.76
80103;BME280;69865;47.648;19.030;2023-05-20T00:40:50;100953.88;;;12.71;96.28
80103;BME280;69865;47.648;19.030;2023-05-20T00:41:21;100953.03;;;12.71;96.22
80103;BME280;69865;47.648;19.030;2023-05-20T00:41:52;100951.34;;;12.70;95.97
80103;BME280;69865;47.648;19.030;2023-05-20T00:42:24;100953.03;;;12.71;96.46
80103;BME280;69865;47.648;19.030;2023-05-20T00:42:55;100948.69;;;12.70;95.93
80103;BME280;69865;47.648;19.030;2023-05-20T00:43:27;100945.94;;;12.71;96.27
80103;BME280;69865;47.648;19.030;2023-05-20T00:43:57;100950.09;;;12.74;96.24
80103;BME280;69865;47.648;19.030;2023-05-20T00:44:28;100948.31;;;12.75;96.41
80103;BME280;69865;47.648;19.030;2023-05-20T00:44:59;100945.09;;;12.71;96.37
80103;BME280;69865;47.648;19.030;2023-05-20T00:45:31;100943.16;;;12.73;95.89
80103;BME280;69865;47.648;19.030;2023-05-20T00:46:02;100947.34;;;12.76;96.22
80103;BME280;69865;47.648;19.030;2023-05-20T00:46:34;100949.16;;;12.75;96.13
80103;BME280;69865;47.648;19.030;2023-05-20T00:47:04;100941.94;;;12.77;96.30
80103;BME280;69865;47.648;19.030;2023-05-20T00:47:35;100948.75;;;12.80;96.38
80103;BME280;69865;47.648;19.030;2023-05-20T00:48:07;100946.69;;;12.83;95.53
80103;BME280;69865;47.648;19.030;2023-05-20T00:48:39;100944.03;;;12.83;95.87
80103;BME280;69865;47.648;19.030;2023-05-20T00:49:10;100942.81;;;12.87;95.82
80103;BME280;69865;47.648;19.030;2023-05-20T00:49:42;100938.34;;;12.88;95.70
80103;BME280;69865;47.648;19.030;2023-05-20T00:50:13;100943.53;;;12.89;95.71
80103;BME280;69865;47.648;19.030;2023-05-20T00:50:44;100950.47;;;12.90;95.28
80103;BME280;69865;47.648;19.030;2023-05-20T00:51:14;100954.78;;;12.91;95.59
80103;BME280;69865;47.648;19.030;2023-05-20T00:51:46;100946.03;;;12.91;95.38
80103;BME280;69865;47.648;19.030;2023-05-20T00:52:17;100947.00;;;12.90;95.61
80103;BME280;69865;47.648;19.030;2023-05-20T00:52:48;100946.84;;;12.91;95.09
80103;BME280;69865;47.648;19.030;2023-05-20T00:53:19;100946.75;;;12.93;95.27
80103;BME280;69865;47.648;19.030;2023-05-20T00:53:50;100946.75;;;12.93;95.17
80103;BME280;69865;47.648;19.030;2023-05-20T00:54:21;100953.81;;;12.92;95.31
80103;BME280;69865;47.648;19.030;2023-05-20T00:54:53;100950.34;;;12.92;94.93
80103;BME280;69865;47.648;19.030;2023-05-20T00:55:24;100951.69;;;12.86;95.31
80103;BME280;69865;47.648;19.030;2023-05-20T00:55:55;100957.72;;;12.88;94.80
80103;BME280;69865;47.648;19.030;2023-05-20T00:56:27;100952.41;;;12.88;94.86
80103;BME280;69865;47.648;19.030;2023-05-20T00:56:58;100949.06;;;12.86;94.93
80103;BME280;69865;47.648;19.030;2023-05-20T00:57:29;100947.41;;;12.85;95.12
80103;BME280;69865;47.648;19.030;2023-05-20T00:58:00;100951.84;;;12.85;95.10
80103;BME280;69865;47.648;19.030;2023-05-20T00:58:33;100949.31;;;12.83;94.99
80103;BME280;69865;47.648;19.030;2023-05-20T00:59:04;100952.81;;;12.84;95.16
80103;BME280;69865;47.648;19.030;2023-05-20T00:59:36;100949.22;;;12.85;94.92
80103;BME280;69865;47.648;19.030;2023-05-20T01:00:09;100956.19;;;12.86;95.06
80103;BME280;69865;47.648;19.030;2023-05-20T01:00:40;100945.44;;;12.87;95.27
80103;BME280;69865;47.648;19.030;2023-05-20T01:01:10;100950.03;;;12.85;94.94
80103;BME280;69865;47.648;19.030;2023-05-20T01:01:41;100947.25;;;12.87;95.35
80103;BME280;69865;47.648;19.030;2023-05-20T01:02:13;100947.97;;;12.89;94.82
80103;BME280;69865;47.648;19.030;2023-05-20T01:02:43;100941.72;;;12.90;94.44
80103;BME280;69865;47.648;19.030;2023-05-20T01:03:14;100943.53;;;12.89;94.57
80103;BME280;69865;47.648;19.030;2023-05-20T01:03:45;100945.06;;;12.92;94.21
80103;BME280;69865;47.648;19.030;2023-05-20T01:04:17;100944.94;;;12.93;94.64
80103;BME280;69865;47.648;19.030;2023-05-20T01:04:48;100942.28;;;12.93;94.14
80103;BME280;69865;47.648;19.030;2023-05-20T01:05:19;100950.06;;;12.95;93.93
80103;BME280;69865;47.648;19.030;2023-05-20T01:05:50;100943.25;;;12.92;94.08
80103;BME280;69865;47.648;19.030;2023-05-20T01:06:20;100940.59;;;12.92;94.49
80103;BME280;69865;47.648;19.030;2023-05-20T01:06:51;100939.09;;;12.90;94.59
80103;BME280;69865;47.648;19.030;2023-05-20T01:07:22;100945.34;;;12.89;94.30
80103;BME280;69865;47.648;19.030;2023-05-20T01:07:53;100937.78;;;12.84;94.25
80103;BME280;69865;47.648;19.030;2023-05-20T01:08:24;100945.84;;;12.83;94.20
80103;BME280;69865;47.648;19.030;2023-05-20T01:08:55;100938.06;;;12.81;94.49
80103;BME280;69865;47.648;19.030;2023-05-20T01:09:26;100944.44;;;12.79;93.86
80103;BME280;69865;47.648;19.030;2023-05-20T01:09:58;100941.22;;;12.75;94.53
80103;BME280;69865;47.648;19.030;2023-05-20T01:10:31;100942.34;;;12.73;94.39
80103;BME280;69865;47.648;19.030;2023-05-20T01:11:06;100948.00;;;12.68;94.32
80103;BME280;69865;47.648;19.030;2023-05-20T01:11:45;100944.63;;;12.66;94.06
80103;BME280;69865;47.648;19.030;2023-05-20T01:12:22;100949.69;;;12.69;94.45
80103;BME280;69865;47.648;19.030;2023-05-20T01:12:57;100950.25;;;12.73;94.29
80103;BME280;69865;47.648;19.030;2023-05-20T01:13:37;100944.81;;;12.74;94.17
80103;BME280;69865;47.648;19.030;2023-05-20T01:14:12;100946.78;;;12.72;93.46
80103;BME280;69865;47.648;19.030;2023-05-20T01:14:48;100948.84;;;12.68;94.27
80103;BME280;69865;47.648;19.030;2023-05-20T01:15:21;100944.59;;;12.56;94.37
80103;BME280;69865;47.648;19.030;2023-05-20T01:15:54;100945.88;;;12.62;94.44
80103;BME280;69865;47.648;19.030;2023-05-20T01:16:25;100954.22;;;12.57;94.36
80103;BME280;69865;47.648;19.030;2023-05-20T01:17:01;100946.41;;;12.56;94.77
80103;BME280;69865;47.648;19.030;2023-05-20T01:17:32;100943.75;;;12.56;94.51
80103;BME280;69865;47.648;19.030;2023-05-20T01:18:07;100947.53;;;12.53;94.64
80103;BME280;69865;47.648;19.030;2023-05-20T01:18:39;100948.22;;;12.55;94.91
80103;BME280;69865;47.648;19.030;2023-05-20T01:19:23;100954.72;;;12.51;95.03
80103;BME280;69865;47.648;19.030;2023-05-20T01:19:58;100960.72;;;12.53;95.14
80103;BME280;69865;47.648;19.030;2023-05-20T01:20:29;100952.66;;;12.55;95.04
80103;BME280;69865;47.648;19.030;2023-05-20T01:21:01;100958.94;;;12.54;94.73
80103;BME280;69865;47.648;19.030;2023-05-20T01:21:32;100956.28;;;12.54;94.60
80103;BME280;69865;47.648;19.030;2023-05-20T01:22:06;100960.47;;;12.56;94.68
80103;BME280;69865;47.648;19.030;2023-05-20T01:22:46;100959.88;;;12.53;94.82
80103;BME280;69865;47.648;19.030;2023-05-20T01:23:17;100957.38;;;12.51;94.35
80103;BME280;69865;47.648;19.030;2023-05-20T01:23:47;100959.31;;;12.49;94.68
80103;BME280;69865;47.648;19.030;2023-05-20T01:24:18;100949.69;;;12.48;94.59
80103;BME280;69865;47.648;19.030;2023-05-20T01:24:49;100948.88;;;12.48;94.64
80103;BME280;69865;47.648;19.030;2023-05-20T01:25:20;100954.25;;;12.46;95.13
80103;BME280;69865;47.648;19.030;2023-05-20T01:25:51;100964.97;;;12.45;95.14
80103;BME280;69865;47.648;19.030;2023-05-20T01:26:21;100950.81;;;12.46;94.98
80103;BME280;69865;47.648;19.030;2023-05-20T01:26:52;100965.94;;;12.44;95.10
80103;BME280;69865;47.648;19.030;2023-05-20T01:27:23;100965.09;;;12.43;95.35
80103;BME280;69865;47.648;19.030;2023-05-20T01:27:55;100965.09;;;12.43;95.66
80103;BME280;69865;47.648;19.030;2023-05-20T01:28:26;100961.63;;;12.43;95.41
80103;BME280;69865;47.648;19.030;2023-05-20T01:28:57;100963.56;;;12.41;95.38
80103;BME280;69865;47.648;19.030;2023-05-20T01:29:28;100961.63;;;12.43;95.21
80103;BME280;69865;47.648;19.030;2023-05-20T01:29:59;100961.88;;;12.40;95.42
80103;BME280;69865;47.648;19.030;2023-05-20T01:30:38;100953.13;;;12.39;95.34
80103;BME280;69865;47.648;19.030;2023-05-20T01:31:20;100962.00;;;12.38;95.15
80103;BME280;69865;47.648;19.030;2023-05-20T01:31:54;100966.59;;;12.36;95.05
80103;BME280;69865;47.648;19.030;2023-05-20T01:32:30;100961.81;;;12.30;94.57
80103;BME280;69865;47.648;19.030;2023-05-20T01:33:08;100961.75;;;12.20;95.11
80103;BME280;69865;47.648;19.030;2023-05-20T01:33:42;100968.47;;;12.24;94.85
80103;BME280;69865;47.648;19.030;2023-05-20T01:34:13;100961.63;;;12.22;94.96
80103;BME280;69865;47.648;19.030;2023-05-20T01:34:47;100964.66;;;12.17;95.21
80103;BME280;69865;47.648;19.030;2023-05-20T01:35:19;100967.41;;;12.16;94.61
80103;BME280;69865;47.648;19.030;2023-05-20T01:35:52;100970.44;;;12.11;94.77
80103;BME280;69865;47.648;19.030;2023-05-20T01:36:24;100970.81;;;12.07;94.71
80103;BME280;69865;47.648;19.030;2023-05-20T01:36:56;100970.22;;;12.03;94.93
80103;BME280;69865;47.648;19.030;2023-05-20T01:37:27;100969.53;;;12.01;94.78
80103;BME280;69865;47.648;19.030;2023-05-20T01:38:02;100968.59;;;11.91;95.19
80103;BME280;69865;47.648;19.030;2023-05-20T01:38:35;100967.91;;;11.89;95.63
80103;BME280;69865;47.648;19.030;2023-05-20T01:39:06;100967.53;;;11.94;95.15
80103;BME280;69865;47.648;19.030;2023-05-20T01:39:38;100967.38;;;11.95;95.91
80103;BME280;69865;47.648;19.030;2023-05-20T01:40:13;100968.38;;;11.94;95.87
80103;BME280;69865;47.648;19.030;2023-05-20T01:40:45;100974.88;;;11.90;96.07
80103;BME280;69865;47.648;19.030;2023-05-20T01:41:17;100970.53;;;11.89;95.89
80103;BME280;69865;47.648;19.030;2023-05-20T01:41:49;100967.91;;;11.89;95.99
80103;BME280;69865;47.648;19.030;2023-05-20T01:42:20;100962.03;;;11.86;95.81
80103;BME280;69865;47.648;19.030;2023-05-20T01:42:52;100966.59;;;11.84;95.48
80103;BME280;69865;47.648;19.030;2023-05-20T01:43:25;100971.59;;;11.87;95.71
80103;BME280;69865;47.648;19.030;2023-05-20T01:43:56;100970.06;;;11.84;96.02
80103;BME280;69865;47.648;19.030;2023-05-20T01:44:27;100969.47;;;11.81;95.68
80103;BME280;69865;47.648;19.030;2023-05-20T01:44:58;100973.22;;;11.78;95.18
80103;BME280;69865;47.648;19.030;2023-05-20T01:45:30;100978.72;;;11.75;95.29
80103;BME280;69865;47.648;19.030;2023-05-20T01:46:01;100971.06;;;11.72;95.72
80103;BME280;69865;47.648;19.030;2023-05-20T01:46:34;100967.91;;;11.67;95.78
80103;BME280;69865;47.648;19.030;2023-05-20T01:47:05;100962.06;;;11.63;96.54
80103;BME280;69865;47.648;19.030;2023-05-20T01:47:36;100966.38;;;11.64;96.26
80103;BME280;69865;47.648;19.030;2023-05-20T01:48:09;100967.06;;;11.66;96.55
80103;BME280;69865;47.648;19.030;2023-05-20T01:48:40;100970.69;;;11.65;96.36
80103;BME280;69865;47.648;19.030;2023-05-20T01:49:11;100974.88;;;11.68;96.24
80103;BME280;69865;47.648;19.030;2023-05-20T01:49:41;100964.69;;;11.63;96.13
80103;BME280;69865;47.648;19.030;2023-05-20T01:50:12;100973.34;;;11.65;96.46
80103;BME280;69865;47.648;19.030;2023-05-20T01:50:43;100970.56;;;11.67;96.62
80103;BME280;69865;47.648;19.030;2023-05-20T01:51:14;100970.44;;;11.68;97.22
80103;BME280;69865;47.648;19.030;2023-05-20T01:51:44;100973.78;;;11.70;97.21
80103;BME280;69865;47.648;19.030;2023-05-20T01:52:15;100974.44;;;11.74;97.29
80103;BME280;69865;47.648;19.030;2023-05-20T01:52:46;100977.06;;;11.74;97.19
80103;BME280;69865;47.648;19.030;2023-05-20T01:53:18;100968.31;;;11.73;97.77
80103;BME280;69865;47.648;19.030;2023-05-20T01:53:49;100962.06;;;11.74;97.89
80103;BME280;69865;47.648;19.030;2023-05-20T01:54:19;100973.34;;;11.76;98.17
80103;BME280;69865;47.648;19.030;2023-05-20T01:54:50;100977.41;;;11.81;98.82
80103;BME280;69865;47.648;19.030;2023-05-20T01:55:21;100977.16;;;11.84;98.63
80103;BME280;69865;47.648;19.030;2023-05-20T01:55:52;100970.78;;;11.86;98.58
80103;BME280;69865;47.648;19.030;2023-05-20T01:56:22;100975.09;;;11.87;98.50
80103;BME280;69865;47.648;19.030;2023-05-20T01:56:53;100973.28;;;11.88;98.14
80103;BME280;69865;47.648;19.030;2023-05-20T01:57:24;100968.00;;;11.88;98.73
80103;BME280;69865;47.648;19.030;2023-05-20T01:57:54;100974.13;;;11.88;98.23
80103;BME280;69865;47.648;19.030;2023-05-20T01:58:25;100971.38;;;11.90;97.77
80103;BME280;69865;47.648;19.030;2023-05-20T01:58:56;100971.22;;;11.91;98.01
80103;BME280;69865;47.648;19.030;2023-05-20T01:59:27;100969.31;;;11.93;97.86
80103;BME280;69865;47.648;19.030;2023-05-20T01:59:57;100974.59;;;11.93;97.65
80103;BME280;69865;47.648;19.030;2023-05-20T02:00:28;100971.81;;;11.95;97.78
80103;BME280;69865;47.648;19.030;2023-05-20T02:00:59;100970.75;;;11.97;97.34
80103;BME280;69865;47.648;19.030;2023-05-20T02:01:29;100971.44;;;11.99;97.46
80103;BME280;69865;47.648;19.030;2023-05-20T02:02:00;100965.91;;;12.02;97.21
80103;BME280;69865;47.648;19.030;2023-05-20T02:02:31;100970.38;;;12.02;97.04
80103;BME280;69865;47.648;19.030;2023-05-20T02:03:02;100968.94;;;11.98;97.29
80103;BME280;69865;47.648;19.030;2023-05-20T02:03:32;100964.63;;;11.97;97.19
80103;BME280;69865;47.648;19.030;2023-05-20T02:04:03;100967.25;;;11.97;97.12
80103;BME280;69865;47.648;19.030;2023-05-20T02:04:34;100968.22;;;11.96;96.76
80103;BME280;69865;47.648;19.030;2023-05-20T02:05:05;100974.09;;;11.99;97.00
80103;BME280;69865;47.648;19.030;2023-05-20T02:05:36;100978.28;;;12.02;96.69
80103;BME280;69865;47.648;19.030;2023-05-20T02:06:06;100968.69;;;12.01;96.46
80103;BME280;69865;47.648;19.030;2023-05-20T02:06:37;100968.81;;;11.99;97.14
80103;BME280;69865;47.648;19.030;2023-05-20T02:07:08;100976.03;;;11.97;96.88
80103;BME280;69865;47.648;19.030;2023-05-20T02:07:39;100966.53;;;11.95;97.04
80103;BME280;69865;47.648;19.030;2023-05-20T02:08:09;100971.13;;;11.93;97.03
80103;BME280;69865;47.648;19.030;2023-05-20T02:08:42;100970.03;;;11.95;96.85
80103;BME280;69865;47.648;19.030;2023-05-20T02:09:13;100971.59;;;11.98;96.32
80103;BME280;69865;47.648;19.030;2023-05-20T02:09:44;100976.88;;;11.98;96.77
80103;BME280;69865;47.648;19.030;2023-05-20T02:10:15;100975.75;;;12.00;96.47
80103;BME280;69865;47.648;19.030;2023-05-20T02:10:47;100969.91;;;11.97;96.55
80103;BME280;69865;47.648;19.030;2023-05-20T02:11:17;100974.72;;;11.92;96.44
80103;BME280;69865;47.648;19.030;2023-05-20T02:11:48;100973.75;;;11.93;95.99
80103;BME280;69865;47.648;19.030;2023-05-20T02:12:19;100971.13;;;11.93;96.14
80103;BME280;69865;47.648;19.030;2023-05-20T02:12:50;100969.69;;;11.89;95.54
80103;BME280;69865;47.648;19.030;2023-05-20T02:13:20;100973.44;;;11.86;95.45
80103;BME280;69865;47.648;19.030;2023-05-20T02:13:51;100977.03;;;11.85;95.67
80103;BME280;69865;47.648;19.030;2023-05-20T02:14:22;100972.81;;;11.83;95.55
80103;BME280;69865;47.648;19.030;2023-05-20T02:14:52;100972.13;;;11.81;96.50
80103;BME280;69865;47.648;19.030;2023-05-20T02:15:23;100980.88;;;11.81;95.98
80103;BME280;69865;47.648;19.030;2023-05-20T02:15:54;100970.31;;;11.81;96.42
80103;BME280;69865;47.648;19.030;2023-05-20T02:16:25;100974.03;;;11.78;96.18
80103;BME280;69865;47.648;19.030;2023-05-20T02:16:55;100972.38;;;11.77;96.55
80103;BME280;69865;47.648;19.030;2023-05-20T02:17:26;100974.44;;;11.74;96.14
80103;BME280;69865;47.648;19.030;2023-05-20T02:17:57;100972.75;;;11.73;96.42
80103;BME280;69865;47.648;19.030;2023-05-20T02:18:27;100976.22;;;11.73;96.18
80103;BME280;69865;47.648;19.030;2023-05-20T02:18:58;100976.22;;;11.73;95.79
80103;BME280;69865;47.648;19.030;2023-05-20T02:19:29;100981.50;;;11.73;96.11
80103;BME280;69865;47.648;19.030;2023-05-20T02:20:00;100974.53;;;11.72;96.35
80103;BME280;69865;47.648;19.030;2023-05-20T02:20:30;100970.22;;;11.60;96.14
80103;BME280;69865;47.648;19.030;2023-05-20T02:21:01;100968.09;;;11.54;96.14
80103;BME280;69865;47.648;19.030;2023-05-20T02:21:32;100970.75;;;11.54;97.05
80103;BME280;69865;47.648;19.030;2023-05-20T02:22:03;100969.91;;;11.54;96.62
80103;BME280;69865;47.648;19.030;2023-05-20T02:22:34;100967.00;;;11.57;96.88
80103;BME280;69865;47.648;19.030;2023-05-20T02:23:05;100976.47;;;11.59;96.53
80103;BME280;69865;47.648;19.030;2023-05-20T02:23:35;100971.06;;;11.61;96.23
80103;BME280;69865;47.648;19.030;2023-05-20T02:24:07;100978.88;;;11.62;96.22
80103;BME280;69865;47.648;19.030;2023-05-20T02:24:38;100977.44;;;11.58;96.71
80103;BME280;69865;47.648;19.030;2023-05-20T02:25:09;100976.81;;;11.55;96.67
80103;BME280;69865;47.648;19.030;2023-05-20T02:25:40;100977.81;;;11.54;96.75
80103;BME280;69865;47.648;19.030;2023-05-20T02:26:11;100980.91;;;11.48;96.89
80103;BME280;69865;47.648;19.030;2023-05-20T02:26:42;100971.56;;;11.44;96.74
80103;BME280;69865;47.648;19.030;2023-05-20T02:27:12;100978.53;;;11.45;96.90
80103;BME280;69865;47.648;19.030;2023-05-20T02:27:43;100975.78;;;11.46;96.70
80103;BME280;69865;47.648;19.030;2023-05-20T02:28:14;100980.06;;;11.47;96.54
80103;BME280;69865;47.648;19.030;2023-05-20T02:28:45;100977.44;;;11.47;96.76
80103;BME280;69865;47.648;19.030;2023-05-20T02:29:15;100980.22;;;11.46;96.53
80103;BME280;69865;47.648;19.030;2023-05-20T02:29:46;100976.75;;;11.45;96.90
80103;BME280;69865;47.648;19.030;2023-05-20T02:30:17;100977.09;;;11.41;96.78
80103;BME280;69865;47.648;19.030;2023-05-20T02:30:47;100976.84;;;11.44;97.15
80103;BME280;69865;47.648;19.030;2023-05-20T02:31:18;100978.44;;;11.46;97.85
80103;BME280;69865;47.648;19.030;2023-05-20T02:31:49;100975.66;;;11.48;97.89
80103;BME280;69865;47.648;19.030;2023-05-20T02:32:20;100978.16;;;11.49;97.99
80103;BME280;69865;47.648;19.030;2023-05-20T02:32:50;100982.59;;;11.49;97.39
80103;BME280;69865;47.648;19.030;2023-05-20T02:33:21;100976.59;;;11.47;97.20
80103;BME280;69865;47.648;19.030;2023-05-20T02:33:52;100978.28;;;11.48;97.70
80103;BME280;69865;47.648;19.030;2023-05-20T02:34:23;100977.44;;;11.47;97.36
80103;BME280;69865;47.648;19.030;2023-05-20T02:34:53;100974.94;;;11.46;97.43
80103;BME280;69865;47.648;19.030;2023-05-20T02:35:24;100978.44;;;11.46;97.36
80103;BME280;69865;47.648;19.030;2023-05-20T02:35:55;100978.44;;;11.46;97.46
80103;BME280;69865;47.648;19.030;2023-05-20T02:36:26;100967.97;;;11.45;98.05
80103;BME280;69865;47.648;19.030;2023-05-20T02:36:56;100975.91;;;11.45;97.42
80103;BME280;69865;47.648;19.030;2023-05-20T02:37:27;100974.81;;;11.47;97.53
80103;BME280;69865;47.648;19.030;2023-05-20T02:37:58;100979.84;;;11.50;98.08
80103;BME280;69865;47.648;19.030;2023-05-20T02:38:29;100979.72;;;11.52;97.35
80103;BME280;69865;47.648;19.030;2023-05-20T02:38:59;100979.72;;;11.52;97.27
80103;BME280;69865;47.648;19.030;2023-05-20T02:39:31;100981.66;;;11.50;97.51
80103;BME280;69865;47.648;19.030;2023-05-20T02:40:03;100965.72;;;11.40;96.97
80103;BME280;69865;47.648;19.030;2023-05-20T02:40:33;100972.06;;;11.38;97.71
80103;BME280;69865;47.648;19.030;2023-05-20T02:41:04;100972.91;;;11.38;97.59
80103;BME280;69865;47.648;19.030;2023-05-20T02:41:35;100978.06;;;11.40;97.37
80103;BME280;69865;47.648;19.030;2023-05-20T02:42:06;100976.16;;;11.42;97.15